createdAt,value
2023-01-22T00:04:43.797Z,-1.20
2023-01-22T00:09:45.747Z,-1.20
2023-01-22T00:14:49.707Z,-1.27
2023-01-22T00:19:51.525Z,-1.22
2023-01-22T00:24:53.286Z,-1.18
2023-01-22T00:29:55.077Z,-1.22
2023-01-22T00:34:56.921Z,-1.23
2023-01-22T00:40:00.374Z,-1.19
2023-01-22T00:45:02.191Z,-1.23
2023-01-22T00:50:04.330Z,-1.21
2023-01-22T00:55:06.783Z,-1.21
2023-01-22T01:00:09.827Z,-1.21
2023-01-22T01:05:11.695Z,-1.19
2023-01-22T01:10:13.589Z,-1.16
2023-01-22T01:15:15.523Z,-1.21
2023-01-22T01:20:17.844Z,-1.26
2023-01-22T01:25:19.858Z,-1.17
2023-01-22T01:30:21.780Z,-1.15
2023-01-22T01:35:24.411Z,-1.19
2023-01-22T01:40:26.473Z,-1.25
2023-01-22T01:45:31.224Z,-1.18
2023-01-22T01:50:33.840Z,-1.12
2023-01-22T01:55:39.599Z,-1.20
2023-01-22T02:00:43.892Z,-1.18
2023-01-22T02:05:45.763Z,-1.20
2023-01-22T02:10:47.698Z,-1.20
2023-01-22T02:15:49.515Z,-1.18
2023-01-22T02:20:56.742Z,-1.22
2023-01-22T02:26:00.204Z,-1.14
2023-01-22T02:31:02.156Z,-1.14
2023-01-22T02:36:05.270Z,-1.09
2023-01-22T02:41:08.686Z,-1.10
2023-01-22T02:46:10.788Z,-1.02
2023-01-22T02:51:12.769Z,-1.06
2023-01-22T02:56:15.338Z,-1.13
2023-01-22T03:01:21.663Z,-1.11
2023-01-22T03:06:28.401Z,-1.13
2023-01-22T03:11:35.906Z,-1.13
2023-01-22T03:16:59.059Z,-1.11
2023-01-22T03:22:00.930Z,-1.17
2023-01-22T03:27:03.857Z,-1.19
2023-01-22T03:32:07.417Z,-1.21
2023-01-22T03:37:14.687Z,-1.19
2023-01-22T03:42:19.448Z,-1.14
2023-01-22T03:47:21.374Z,-1.15
2023-01-22T03:52:24.444Z,-1.12
2023-01-22T03:57:26.283Z,-1.13
2023-01-22T04:02:29.089Z,-1.16
2023-01-22T04:07:43.972Z,-1.10
2023-01-22T04:12:47.096Z,-1.04
2023-01-22T04:17:51.724Z,-1.12
2023-01-22T04:23:16.496Z,-1.11
2023-01-22T04:28:19.197Z,-1.04
2023-01-22T04:33:24.724Z,-1.04
2023-01-22T04:38:40.170Z,-0.96
2023-01-22T04:43:43.554Z,-0.98
2023-01-22T04:48:46.466Z,-0.92
2023-01-22T04:53:48.886Z,-0.94
2023-01-22T04:58:51.827Z,-1.06
2023-01-22T05:03:53.794Z,-0.99
2023-01-22T05:08:55.667Z,-0.92
2023-01-22T05:13:57.850Z,-0.97
2023-01-22T05:18:59.870Z,-0.92
2023-01-22T05:24:01.879Z,-0.93
2023-01-22T05:29:05.166Z,-0.94
2023-01-22T05:34:21.015Z,-1.07
2023-01-22T05:39:24.131Z,-1.00
2023-01-22T05:44:28.176Z,-1.04
2023-01-22T05:49:30.932Z,-0.90
2023-01-22T05:54:34.061Z,-0.89
2023-01-22T05:59:37.330Z,-0.91
2023-01-22T06:04:41.129Z,-0.96
2023-01-22T06:09:53.346Z,-1.02
2023-01-22T06:14:55.427Z,-0.96
2023-01-22T06:19:57.269Z,-0.99
2023-01-22T06:24:59.094Z,-1.07
2023-01-22T06:30:12.629Z,-1.07
2023-01-22T06:35:14.532Z,-1.03
2023-01-22T06:40:16.859Z,-0.96
2023-01-22T06:45:21.088Z,-1.00
2023-01-22T06:50:28.034Z,-1.07
2023-01-22T06:55:30.119Z,-1.00
2023-01-22T07:00:32.045Z,-1.12
2023-01-22T07:05:35.055Z,-1.07
2023-01-22T07:10:36.826Z,-1.05
2023-01-22T07:15:38.605Z,-0.96
2023-01-22T07:20:42.341Z,-0.91
2023-01-22T07:25:44.896Z,-0.96
2023-01-22T07:30:47.160Z,-0.93
2023-01-22T07:35:59.019Z,-0.89
2023-01-22T07:41:04.362Z,-0.91
2023-01-22T07:46:07.834Z,-0.84
2023-01-22T07:51:09.705Z,-0.78
2023-01-22T07:56:12.363Z,-1.00
2023-01-22T08:01:14.286Z,-0.87
2023-01-22T08:06:20.778Z,-0.82
2023-01-22T08:11:22.569Z,-0.75
2023-01-22T08:16:24.507Z,-0.81
2023-01-22T08:21:26.422Z,-0.82
2023-01-22T08:26:28.402Z,-0.76
2023-01-22T08:31:30.382Z,-0.83
2023-01-22T08:36:32.458Z,-0.83
2023-01-22T08:41:34.268Z,-0.89
2023-01-22T08:46:40.188Z,-0.70
2023-01-22T08:51:42.021Z,-0.74
2023-01-22T08:56:43.935Z,-0.77
2023-01-22T09:01:45.744Z,-0.82
2023-01-22T09:06:47.535Z,-0.69
2023-01-22T09:11:49.399Z,-0.74
2023-01-22T09:16:51.281Z,-0.76
2023-01-22T09:21:53.148Z,-0.72
2023-01-22T09:26:54.957Z,-0.62
2023-01-22T09:31:56.970Z,-0.59
2023-01-22T09:37:00.275Z,-0.56
2023-01-22T09:42:05.384Z,-0.50
2023-01-22T09:47:19.714Z,-0.46
2023-01-22T09:52:27.488Z,-0.38
2023-01-22T09:57:32.053Z,-0.33
2023-01-22T10:02:39.454Z,-0.14
2023-01-22T10:07:47.342Z,-0.31
2023-01-22T10:13:12.904Z,-0.39
2023-01-22T10:18:44.891Z,-0.28
2023-01-22T10:23:48.290Z,-0.05
2023-01-22T10:28:58.891Z,-0.02
2023-01-22T10:34:12.244Z,-0.02
2023-01-22T10:39:16.272Z,-0.19
2023-01-22T10:44:25.404Z,-0.26
2023-01-22T10:49:28.146Z,-0.13
2023-01-22T10:54:34.017Z,-0.24
2023-01-22T10:59:36.746Z,-0.18
2023-01-22T11:04:38.661Z,-0.18
2023-01-22T11:09:49.446Z,-0.28
2023-01-22T11:15:04.462Z,-0.12
2023-01-22T11:20:46.126Z,-0.17
2023-01-22T11:25:53.974Z,-0.01
2023-01-22T11:31:20.640Z,-0.19
2023-01-22T11:36:25.484Z,-0.15
2023-01-22T11:41:49.020Z,-0.19
2023-01-22T11:47:12.137Z,-0.24
2023-01-22T11:52:34.639Z,-0.22
2023-01-22T11:57:46.390Z,-0.21
2023-01-22T12:03:25.239Z,-0.33
2023-01-22T12:08:50.498Z,-0.24
2023-01-22T12:13:58.262Z,-0.16
2023-01-22T12:19:34.246Z,-0.12
2023-01-22T12:24:44.477Z,-0.36
2023-01-22T12:29:56.461Z,-0.32
2023-01-22T12:35:19.334Z,-0.45
2023-01-22T12:40:45.790Z,-0.32
2023-01-22T12:46:03.813Z,-0.40
2023-01-22T12:51:05.751Z,-0.45
2023-01-22T12:56:10.002Z,-0.43
2023-01-22T13:01:11.862Z,-0.39
2023-01-22T13:06:29.425Z,-0.29
2023-01-22T13:11:33.268Z,-0.17
2023-01-22T13:16:37.493Z,-0.31
2023-01-22T13:21:39.382Z,-0.45
2023-01-22T13:26:41.739Z,-0.61
2023-01-22T13:31:59.240Z,-0.71
2023-01-22T13:37:01.180Z,-0.62
2023-01-22T13:42:05.485Z,-0.58
2023-01-22T13:47:07.531Z,-0.70
2023-01-22T13:52:16.619Z,-0.63
2023-01-22T13:57:21.926Z,-0.45
2023-01-22T14:02:29.658Z,-0.39
2023-01-22T14:07:39.637Z,-0.15
2023-01-22T14:12:41.698Z,-0.22
2023-01-22T14:17:43.863Z,-0.37
2023-01-22T14:22:45.758Z,-0.55
2023-01-22T14:27:49.764Z,-0.66
2023-01-22T14:32:51.883Z,-0.78
2023-01-22T14:37:54.816Z,-0.84
2023-01-22T14:43:00.004Z,-0.90
2023-01-22T14:48:04.050Z,-0.80
2023-01-22T14:53:06.204Z,-0.75
2023-01-22T14:58:08.546Z,-0.78
2023-01-22T15:03:10.345Z,-0.82
2023-01-22T15:08:12.129Z,-0.81
2023-01-22T15:13:13.933Z,-0.82
2023-01-22T15:18:15.714Z,-0.76
2023-01-22T15:23:17.539Z,-0.81
2023-01-22T15:28:19.356Z,-0.85
2023-01-22T15:33:21.168Z,-0.89
2023-01-22T15:38:22.973Z,-0.95
2023-01-22T15:43:24.777Z,-0.92
2023-01-22T15:48:26.555Z,-0.97
2023-01-22T15:53:28.368Z,-0.98
2023-01-22T15:58:32.008Z,-0.95
2023-01-22T16:03:33.933Z,-0.92
2023-01-22T16:08:36.015Z,-0.94
2023-01-22T16:13:38.326Z,-0.95
2023-01-22T16:18:42.876Z,-0.97
2023-01-22T16:23:46.264Z,-0.96
2023-01-22T16:28:52.819Z,-0.95
2023-01-22T16:33:59.716Z,-0.93
2023-01-22T16:39:01.638Z,-0.86
2023-01-22T16:44:11.944Z,-0.93
2023-01-22T16:49:16.546Z,-0.94
2023-01-22T16:54:20.811Z,-0.97
2023-01-22T16:59:22.816Z,-0.97
2023-01-22T17:04:25.189Z,-0.95
2023-01-22T17:09:32.445Z,-0.96
2023-01-22T17:14:36.536Z,-0.93
2023-01-22T17:19:38.345Z,-0.88
2023-01-22T17:24:41.537Z,-0.91
2023-01-22T17:29:43.392Z,-0.90
2023-01-22T17:34:45.223Z,-0.88
2023-01-22T17:39:50.727Z,-0.83
2023-01-22T17:44:52.550Z,-0.84
2023-01-22T17:49:55.683Z,-0.77
2023-01-22T17:54:57.497Z,-0.72
2023-01-22T17:59:59.326Z,-0.83
2023-01-22T18:05:01.192Z,-0.84
2023-01-22T18:10:03.574Z,-0.86
2023-01-22T18:15:05.918Z,-0.82
2023-01-22T18:20:09.448Z,-0.81
2023-01-22T18:25:11.312Z,-0.85
2023-01-22T18:30:15.425Z,-0.89
2023-01-22T18:35:17.411Z,-0.89
2023-01-22T18:40:19.384Z,-0.86
2023-01-22T18:45:21.306Z,-0.90
2023-01-22T18:50:23.351Z,-0.90
2023-01-22T18:55:25.282Z,-0.90
2023-01-22T19:00:27.101Z,-0.86
2023-01-22T19:05:28.957Z,-0.83
2023-01-22T19:10:31.033Z,-0.81
2023-01-22T19:15:33.403Z,-0.89
2023-01-22T19:20:39.544Z,-0.92
2023-01-22T19:25:41.392Z,-0.88
2023-01-22T19:30:43.292Z,-0.86
2023-01-22T19:35:49.269Z,-0.91
2023-01-22T19:40:51.339Z,-0.89
2023-01-22T19:45:53.139Z,-0.89
2023-01-22T19:50:59.760Z,-0.85
2023-01-22T19:56:02.304Z,-0.91
2023-01-22T20:01:09.001Z,-0.84
2023-01-22T20:06:13.057Z,-0.85
2023-01-22T20:11:15.834Z,-0.80
2023-01-22T20:16:23.063Z,-0.82
2023-01-22T20:21:27.641Z,-0.82
2023-01-22T20:26:29.496Z,-0.88
2023-01-22T20:31:31.510Z,-0.87
2023-01-22T20:36:33.410Z,-0.87
2023-01-22T20:41:35.385Z,-0.88
2023-01-22T20:46:40.541Z,-0.84
2023-01-22T20:51:42.809Z,-0.86
2023-01-22T20:56:46.178Z,-0.78
2023-01-22T21:01:48.200Z,-0.79
2023-01-22T21:06:50.422Z,-0.77
2023-01-22T21:11:52.234Z,-0.77
2023-01-22T21:16:54.093Z,-0.74
2023-01-22T21:21:57.389Z,-0.76
2023-01-22T21:26:59.210Z,-0.77
2023-01-22T21:32:01.136Z,-0.83
2023-01-22T21:37:03.200Z,-0.90
2023-01-22T21:42:23.636Z,-0.85
2023-01-22T21:47:25.462Z,-0.84
2023-01-22T21:52:27.393Z,-0.78
2023-01-22T21:57:29.517Z,-0.79
2023-01-22T22:02:31.454Z,-0.80
2023-01-22T22:07:33.325Z,-0.77
2023-01-22T22:12:35.108Z,-0.83
2023-01-22T22:17:37.461Z,-0.81
2023-01-22T22:22:40.539Z,-0.86
2023-01-22T22:27:42.380Z,-0.85
2023-01-22T22:32:44.270Z,-0.80
2023-01-22T22:37:46.107Z,-0.78
2023-01-22T22:42:47.903Z,-0.83
2023-01-22T22:47:49.672Z,-0.82
2023-01-22T22:52:51.474Z,-0.78
2023-01-22T22:57:53.350Z,-0.73
2023-01-22T23:02:56.132Z,-0.83
2023-01-22T23:07:57.955Z,-0.77
2023-01-22T23:13:02.240Z,-0.73
2023-01-22T23:18:04.091Z,-0.74
2023-01-22T23:23:05.945Z,-0.71
2023-01-22T23:28:07.740Z,-0.76
2023-01-22T23:33:09.626Z,-0.78
2023-01-22T23:38:11.605Z,-0.79
2023-01-22T23:43:13.416Z,-0.85
2023-01-22T23:48:15.371Z,-0.82
2023-01-22T23:53:17.976Z,-0.84
2023-01-22T23:58:20.919Z,-0.81
